createdAt,value
2024-02-24T00:02:30.117Z,8.69
2024-02-24T00:05:12.189Z,8.67
2024-02-24T00:07:46.061Z,8.65
2024-02-24T00:10:19.127Z,8.65
2024-02-24T00:12:50.692Z,8.63
2024-02-24T00:15:19.019Z,8.62
2024-02-24T00:17:52.121Z,8.62
2024-02-24T00:20:23.208Z,8.61
2024-02-24T00:22:51.857Z,8.61
2024-02-24T00:25:25.381Z,8.63
2024-02-24T00:27:56.829Z,8.63
2024-02-24T00:30:52.003Z,8.65
2024-02-24T00:33:20.753Z,8.66
2024-02-24T00:35:49.123Z,8.66
2024-02-24T00:38:20.577Z,8.65
2024-02-24T00:40:53.820Z,8.65
2024-02-24T00:43:26.843Z,8.65
2024-02-24T00:45:55.210Z,8.63
2024-02-24T00:48:23.303Z,8.58
2024-02-24T00:50:52.959Z,8.55
2024-02-24T00:53:23.789Z,8.52
2024-02-24T00:55:52.397Z,8.49
2024-02-24T00:58:23.669Z,8.44
2024-02-24T01:00:52.244Z,8.40
2024-02-24T01:03:34.577Z,8.37
2024-02-24T01:06:07.802Z,8.34
2024-02-24T01:08:36.261Z,8.27
2024-02-24T01:11:07.985Z,8.20
2024-02-24T01:13:36.341Z,8.16
2024-02-24T01:16:07.980Z,8.12
2024-02-24T01:18:36.543Z,8.10
2024-02-24T01:21:05.511Z,8.08
2024-02-24T01:23:36.326Z,8.09
2024-02-24T01:26:04.895Z,8.13
2024-02-24T01:28:37.919Z,8.06
2024-02-24T01:31:06.361Z,7.96
2024-02-24T01:33:37.341Z,7.91
2024-02-24T01:36:06.175Z,7.81
2024-02-24T01:38:42.296Z,7.73
2024-02-24T01:41:15.281Z,7.66
2024-02-24T01:43:44.194Z,7.59
2024-02-24T01:46:16.377Z,7.50
2024-02-24T01:48:54.872Z,7.40
2024-02-24T01:51:26.429Z,7.33
2024-02-24T01:53:55.612Z,7.27
2024-02-24T01:56:33.134Z,7.24
2024-02-24T01:59:02.341Z,7.20
2024-02-24T02:01:31.706Z,7.13
2024-02-24T02:04:00.318Z,7.10
2024-02-24T02:06:51.788Z,7.06
2024-02-24T02:09:27.236Z,7.03
2024-02-24T02:12:58.799Z,7.00
2024-02-24T02:16:17.777Z,6.98
2024-02-24T02:19:00.993Z,6.94
2024-02-24T02:21:39.616Z,6.95
2024-02-24T02:24:20.419Z,6.92
2024-02-24T02:26:53.819Z,6.88
2024-02-24T02:29:24.663Z,6.85
2024-02-24T02:31:56.672Z,6.84
2024-02-24T02:34:28.426Z,6.86
2024-02-24T02:37:02.109Z,6.87
2024-02-24T02:39:34.929Z,6.86
2024-02-24T02:42:05.679Z,6.85
2024-02-24T02:44:34.314Z,6.84
2024-02-24T02:47:14.656Z,6.86
2024-02-24T02:49:49.008Z,6.84
2024-02-24T02:52:17.818Z,6.78
2024-02-24T02:54:49.671Z,6.74
2024-02-24T02:57:26.836Z,6.70
2024-02-24T02:59:58.242Z,6.66
2024-02-24T03:02:26.674Z,6.66
2024-02-24T03:05:00.531Z,6.69
2024-02-24T03:07:32.174Z,6.72
2024-02-24T03:10:03.138Z,6.71
2024-02-24T03:12:34.647Z,6.66
2024-02-24T03:15:03.778Z,6.61
2024-02-24T03:17:32.350Z,6.57
2024-02-24T03:20:00.969Z,6.54
2024-02-24T03:22:33.419Z,6.54
2024-02-24T03:25:01.885Z,6.53
2024-02-24T03:27:32.506Z,6.50
2024-02-24T03:30:01.293Z,6.48
2024-02-24T03:32:30.176Z,6.44
2024-02-24T03:35:04.607Z,6.38
2024-02-24T03:37:35.911Z,6.33
2024-02-24T03:40:04.423Z,6.25
2024-02-24T03:42:32.707Z,6.22
2024-02-24T03:45:05.007Z,6.22
2024-02-24T03:47:33.628Z,6.25
2024-02-24T03:50:02.145Z,6.23
2024-02-24T03:52:31.549Z,6.24
2024-02-24T03:54:59.993Z,6.27
2024-02-24T03:57:28.955Z,6.28
2024-02-24T03:59:57.614Z,6.26
2024-02-24T04:02:26.405Z,6.26
2024-02-24T04:04:55.004Z,6.24
2024-02-24T04:07:25.849Z,6.21
2024-02-24T04:10:03.468Z,6.20
2024-02-24T04:12:31.849Z,6.22
2024-02-24T04:15:00.133Z,6.20
2024-02-24T04:17:28.696Z,6.19
2024-02-24T04:19:57.112Z,6.19
2024-02-24T04:22:25.550Z,6.18
2024-02-24T04:24:54.151Z,6.17
2024-02-24T04:27:22.335Z,6.14
2024-02-24T04:30:04.321Z,6.13
2024-02-24T04:32:32.893Z,6.12
2024-02-24T04:35:01.486Z,6.08
2024-02-24T04:37:32.204Z,6.02
2024-02-24T04:40:00.512Z,6.02
2024-02-24T04:42:28.964Z,6.00
2024-02-24T04:44:57.453Z,5.97
2024-02-24T04:47:29.650Z,5.94
2024-02-24T04:49:58.550Z,5.92
2024-02-24T04:52:28.665Z,5.90
2024-02-24T04:54:59.574Z,5.87
2024-02-24T04:57:33.597Z,5.87
2024-02-24T05:00:02.381Z,5.88
2024-02-24T05:02:34.042Z,5.87
2024-02-24T05:05:02.596Z,5.84
2024-02-24T05:07:31.082Z,5.82
2024-02-24T05:10:01.853Z,5.81
2024-02-24T05:12:49.928Z,5.79
2024-02-24T05:15:38.722Z,5.79
2024-02-24T05:18:07.171Z,5.78
2024-02-24T05:20:38.807Z,5.77
2024-02-24T05:23:10.561Z,5.75
2024-02-24T05:25:39.138Z,5.75
2024-02-24T05:28:10.498Z,5.74
2024-02-24T05:30:39.109Z,5.73
2024-02-24T05:33:12.885Z,5.78
2024-02-24T05:35:43.466Z,5.85
2024-02-24T05:38:16.930Z,5.91
2024-02-24T05:40:45.338Z,5.94
2024-02-24T05:43:13.631Z,6.00
2024-02-24T05:45:42.960Z,6.05
2024-02-24T05:48:14.186Z,6.10
2024-02-24T05:50:43.127Z,6.09
2024-02-24T05:53:12.680Z,6.13
2024-02-24T05:55:47.198Z,6.15
2024-02-24T05:58:15.365Z,6.19
2024-02-24T06:00:43.435Z,6.22
2024-02-24T06:03:16.858Z,6.27
2024-02-24T06:05:48.040Z,6.33
2024-02-24T06:08:19.769Z,6.39
2024-02-24T06:10:51.343Z,6.47
2024-02-24T06:13:27.683Z,6.57
2024-02-24T06:15:58.586Z,6.66
2024-02-24T06:18:32.769Z,6.78
2024-02-24T06:21:01.410Z,6.91
2024-02-24T06:23:31.121Z,7.04
2024-02-24T06:25:59.576Z,7.17
2024-02-24T06:28:27.589Z,7.30
2024-02-24T06:30:58.966Z,7.44
2024-02-24T06:33:27.549Z,7.60
2024-02-24T06:35:55.897Z,7.75
2024-02-24T06:38:27.199Z,7.91
2024-02-24T06:41:00.633Z,8.08
2024-02-24T06:43:52.766Z,8.26
2024-02-24T06:46:21.154Z,8.46
2024-02-24T06:48:49.628Z,8.63
2024-02-24T06:51:22.081Z,8.78
2024-02-24T06:53:55.728Z,8.93
2024-02-24T06:56:24.505Z,9.07
2024-02-24T06:58:55.900Z,9.26
2024-02-24T07:01:34.903Z,9.45
2024-02-24T07:04:26.572Z,9.69
2024-02-24T07:06:57.821Z,9.90
2024-02-24T07:09:29.591Z,10.09
2024-02-24T07:12:06.480Z,10.26
2024-02-24T07:14:58.026Z,10.45
2024-02-24T07:17:28.061Z,10.63
2024-02-24T07:19:56.587Z,10.81
2024-02-24T07:22:43.246Z,10.99
2024-02-24T07:25:14.164Z,11.18
2024-02-24T07:27:47.395Z,11.32
2024-02-24T07:30:44.266Z,11.49
2024-02-24T07:33:44.719Z,11.70
2024-02-24T07:36:31.198Z,11.92
2024-02-24T07:39:06.055Z,12.09
2024-02-24T07:41:37.084Z,12.23
2024-02-24T07:44:11.119Z,12.37
2024-02-24T07:46:39.652Z,12.52
2024-02-24T07:49:24.606Z,12.67
2024-02-24T07:51:52.895Z,12.80
2024-02-24T07:54:29.209Z,12.93
2024-02-24T07:56:57.761Z,13.11
2024-02-24T07:59:46.655Z,13.26
2024-02-24T08:02:15.305Z,13.37
2024-02-24T08:04:43.878Z,13.44
2024-02-24T08:07:12.256Z,13.56
2024-02-24T08:09:43.366Z,13.67
2024-02-24T08:12:15.066Z,13.78
2024-02-24T08:15:04.295Z,13.93
2024-02-24T08:17:35.573Z,14.02
2024-02-24T08:20:09.938Z,14.09
2024-02-24T08:22:40.495Z,14.26
2024-02-24T08:25:20.797Z,14.40
2024-02-24T08:27:49.448Z,14.55
2024-02-24T08:30:21.904Z,14.65
2024-02-24T08:32:58.695Z,14.80
2024-02-24T08:35:29.511Z,14.92
2024-02-24T08:38:01.062Z,15.10
2024-02-24T08:40:29.276Z,15.25
2024-02-24T08:42:58.523Z,15.39
2024-02-24T08:45:29.091Z,15.49
2024-02-24T08:47:57.394Z,15.54
2024-02-24T08:50:30.034Z,15.57
2024-02-24T08:52:58.730Z,15.65
2024-02-24T08:55:27.565Z,15.78
2024-02-24T08:57:56.623Z,15.95
2024-02-24T09:00:25.321Z,16.10
2024-02-24T09:02:53.651Z,16.21
2024-02-24T09:05:22.408Z,16.30
2024-02-24T09:07:50.880Z,16.43
2024-02-24T09:10:19.383Z,16.52
2024-02-24T09:12:47.606Z,16.61
2024-02-24T09:15:15.981Z,16.73
2024-02-24T09:17:44.658Z,16.85
2024-02-24T09:20:13.182Z,17.04
2024-02-24T09:22:42.624Z,17.10
2024-02-24T09:25:15.540Z,17.14
2024-02-24T09:27:44.882Z,17.18
2024-02-24T09:30:14.234Z,17.30
2024-02-24T09:32:42.941Z,17.47
2024-02-24T09:35:11.536Z,17.60
2024-02-24T09:37:39.910Z,17.82
2024-02-24T09:40:08.954Z,17.95
2024-02-24T09:42:37.165Z,17.99
2024-02-24T09:45:12.655Z,18.03
2024-02-24T09:47:43.960Z,18.14
2024-02-24T09:50:13.169Z,18.28
2024-02-24T09:52:43.105Z,18.40
2024-02-24T09:55:11.910Z,18.58
2024-02-24T09:57:41.951Z,18.81
2024-02-24T10:00:10.861Z,19.00
2024-02-24T10:02:42.989Z,19.15
2024-02-24T10:05:11.561Z,19.40
2024-02-24T10:07:40.775Z,19.66
2024-02-24T10:10:11.914Z,19.74
2024-02-24T10:12:40.245Z,19.87
2024-02-24T10:15:09.012Z,20.06
2024-02-24T10:17:39.424Z,20.26
2024-02-24T10:20:08.338Z,20.40
2024-02-24T10:22:37.489Z,20.67
2024-02-24T10:25:06.746Z,20.91
2024-02-24T10:27:34.902Z,20.96
2024-02-24T10:30:05.807Z,20.91
2024-02-24T10:32:35.313Z,20.92
2024-02-24T10:35:09.628Z,21.02
2024-02-24T10:37:56.409Z,21.16
2024-02-24T10:40:26.341Z,21.27
2024-02-24T10:42:55.161Z,21.56
2024-02-24T10:45:25.787Z,21.70
2024-02-24T10:47:56.033Z,21.94
2024-02-24T10:50:24.682Z,22.12
2024-02-24T10:52:54.992Z,22.39
2024-02-24T10:55:25.430Z,22.64
2024-02-24T10:57:55.972Z,22.87
2024-02-24T11:00:33.454Z,23.01
2024-02-24T11:03:02.881Z,23.31
2024-02-24T11:05:32.689Z,23.64
2024-02-24T11:08:03.022Z,23.70
2024-02-24T11:10:35.264Z,23.82
2024-02-24T11:13:03.948Z,23.90
2024-02-24T11:15:33.673Z,23.99
2024-02-24T11:18:01.883Z,24.02
2024-02-24T11:20:54.200Z,24.14
2024-02-24T11:23:24.813Z,24.34
2024-02-24T11:26:30.156Z,24.49
2024-02-24T11:29:04.517Z,24.83
2024-02-24T11:31:35.707Z,25.20
2024-02-24T11:34:07.673Z,25.49
2024-02-24T11:36:39.966Z,25.35
2024-02-24T11:39:09.930Z,25.30
2024-02-24T11:41:38.575Z,25.46
2024-02-24T11:44:07.508Z,25.63
2024-02-24T11:46:37.246Z,25.90
2024-02-24T11:49:05.841Z,25.69
2024-02-24T11:51:35.555Z,25.62
2024-02-24T11:54:04.906Z,25.62
2024-02-24T11:56:33.807Z,25.74
2024-02-24T11:59:02.742Z,26.14
2024-02-24T12:01:31.555Z,26.17
2024-02-24T12:04:00.611Z,26.11
2024-02-24T12:06:30.140Z,25.90
2024-02-24T12:08:59.953Z,25.97
2024-02-24T12:11:29.275Z,26.40
2024-02-24T12:13:57.743Z,26.63
2024-02-24T12:16:25.938Z,26.90
2024-02-24T12:18:54.233Z,27.27
2024-02-24T12:21:22.353Z,27.38
2024-02-24T12:23:50.768Z,27.31
2024-02-24T12:26:21.437Z,27.34
2024-02-24T12:28:49.663Z,27.12
2024-02-24T12:31:18.515Z,26.90
2024-02-24T12:33:47.307Z,27.10
2024-02-24T12:36:16.786Z,27.24
2024-02-24T12:38:46.439Z,27.44
2024-02-24T12:41:14.821Z,27.38
2024-02-24T12:43:43.378Z,27.55
2024-02-24T12:46:11.748Z,27.78
2024-02-24T12:48:44.515Z,27.62
2024-02-24T12:51:14.360Z,27.22
2024-02-24T12:53:43.005Z,26.81
2024-02-24T12:56:11.499Z,26.64
2024-02-24T12:58:40.198Z,26.63
2024-02-24T13:01:09.608Z,26.52
2024-02-24T13:03:38.062Z,26.78
2024-02-24T13:06:06.446Z,26.71
2024-02-24T13:08:34.998Z,26.71
2024-02-24T13:11:03.419Z,26.86
2024-02-24T13:13:31.737Z,26.93
2024-02-24T13:15:59.962Z,26.85
2024-02-24T13:18:28.667Z,26.48
2024-02-24T13:20:57.073Z,25.89
2024-02-24T13:23:25.393Z,26.01
2024-02-24T13:25:53.687Z,26.49
2024-02-24T13:28:21.868Z,26.67
2024-02-24T13:30:49.900Z,26.94
2024-02-24T13:33:18.101Z,27.13
2024-02-24T13:35:46.350Z,27.31
2024-02-24T13:38:14.644Z,27.42
2024-02-24T13:40:42.967Z,27.42
2024-02-24T13:43:12.957Z,27.20
2024-02-24T13:45:42.609Z,27.32
2024-02-24T13:48:10.909Z,27.29
2024-02-24T13:50:39.092Z,27.44
2024-02-24T13:53:09.181Z,27.33
2024-02-24T13:55:38.552Z,27.18
2024-02-24T13:58:06.948Z,27.02
2024-02-24T14:00:35.234Z,27.03
2024-02-24T14:03:03.995Z,27.05
2024-02-24T14:05:34.354Z,27.05
2024-02-24T14:08:04.253Z,26.93
2024-02-24T14:10:34.474Z,26.91
2024-02-24T14:13:02.591Z,26.77
2024-02-24T14:15:31.140Z,26.60
2024-02-24T14:17:59.995Z,26.38
2024-02-24T14:20:34.357Z,26.09
2024-02-24T14:23:02.865Z,25.80
2024-02-24T14:25:32.523Z,25.93
2024-02-24T14:28:03.423Z,25.91
2024-02-24T14:30:31.579Z,25.88
2024-02-24T14:32:59.825Z,25.93
2024-02-24T14:35:28.352Z,26.00
2024-02-24T14:37:56.922Z,25.87
2024-02-24T14:40:25.365Z,25.52
2024-02-24T14:42:54.341Z,25.30
2024-02-24T14:45:22.827Z,25.32
2024-02-24T14:47:51.279Z,25.21
2024-02-24T14:50:19.972Z,25.04
2024-02-24T14:52:48.291Z,24.73
2024-02-24T14:55:16.963Z,24.48
2024-02-24T14:57:45.766Z,24.29
2024-02-24T15:00:14.596Z,24.05
2024-02-24T15:02:52.478Z,23.86
2024-02-24T15:05:32.144Z,23.57
2024-02-24T15:08:02.101Z,23.40
2024-02-24T15:10:32.936Z,23.19
2024-02-24T15:13:03.732Z,22.97
2024-02-24T15:15:32.112Z,22.80
2024-02-24T15:18:04.344Z,22.58
2024-02-24T15:20:33.083Z,22.36
2024-02-24T15:23:01.878Z,22.24
2024-02-24T15:25:30.401Z,22.06
2024-02-24T15:28:00.016Z,21.96
2024-02-24T15:30:28.609Z,21.91
2024-02-24T15:32:59.356Z,21.82
2024-02-24T15:35:27.914Z,21.63
2024-02-24T15:37:56.452Z,21.37
2024-02-24T15:40:29.520Z,21.12
2024-02-24T15:42:59.481Z,20.92
2024-02-24T15:45:27.757Z,20.74
2024-02-24T15:47:56.342Z,20.61
2024-02-24T15:50:33.642Z,20.48
2024-02-24T15:53:02.347Z,20.37
2024-02-24T15:55:30.781Z,20.27
2024-02-24T15:58:00.795Z,20.18
2024-02-24T16:00:29.507Z,20.09
2024-02-24T16:02:59.454Z,19.98
2024-02-24T16:05:49.259Z,19.89
2024-02-24T16:08:17.697Z,19.75
2024-02-24T16:10:48.489Z,19.57
2024-02-24T16:13:25.462Z,19.41
2024-02-24T16:15:54.898Z,19.28
2024-02-24T16:18:25.702Z,19.13
2024-02-24T16:20:54.373Z,18.94
2024-02-24T16:23:22.830Z,18.80
2024-02-24T16:25:51.226Z,18.69
2024-02-24T16:28:19.443Z,18.60
2024-02-24T16:30:47.726Z,18.52
2024-02-24T16:33:16.037Z,18.46
2024-02-24T16:35:44.689Z,18.40
2024-02-24T16:38:13.941Z,18.32
2024-02-24T16:40:42.685Z,18.22
2024-02-24T16:43:12.807Z,18.13
2024-02-24T16:45:41.293Z,18.06
2024-02-24T16:48:15.856Z,17.98
2024-02-24T16:50:44.807Z,17.89
2024-02-24T16:53:13.451Z,17.80
2024-02-24T16:55:41.983Z,17.72
2024-02-24T16:58:10.658Z,17.61
2024-02-24T17:00:38.922Z,17.51
2024-02-24T17:03:07.820Z,17.41
2024-02-24T17:05:39.236Z,17.32
2024-02-24T17:08:07.970Z,17.23
2024-02-24T17:10:40.789Z,17.15
2024-02-24T17:13:11.398Z,17.11
2024-02-24T17:15:40.498Z,17.07
2024-02-24T17:18:17.470Z,17.01
2024-02-24T17:20:49.633Z,16.96
2024-02-24T17:23:18.282Z,16.92
2024-02-24T17:26:04.405Z,16.86
2024-02-24T17:28:32.823Z,16.68
2024-02-24T17:31:06.013Z,16.43
2024-02-24T17:33:34.682Z,16.24
2024-02-24T17:36:08.673Z,16.10
2024-02-24T17:38:37.941Z,15.97
2024-02-24T17:41:06.382Z,15.85
2024-02-24T17:43:35.024Z,15.76
2024-02-24T17:46:03.861Z,15.68
2024-02-24T17:48:36.644Z,15.62
2024-02-24T17:51:05.719Z,15.55
2024-02-24T17:53:34.326Z,15.48
2024-02-24T17:56:03.125Z,15.44
2024-02-24T17:58:40.530Z,15.44
2024-02-24T18:01:14.418Z,15.41
2024-02-24T18:03:45.935Z,15.39
2024-02-24T18:06:14.445Z,15.38
2024-02-24T18:08:48.291Z,15.35
2024-02-24T18:11:17.105Z,15.30
2024-02-24T18:13:45.419Z,15.22
2024-02-24T18:16:13.979Z,15.17
2024-02-24T18:18:42.436Z,15.11
2024-02-24T18:21:22.452Z,15.07
2024-02-24T18:23:58.604Z,15.03
2024-02-24T18:26:44.293Z,14.98
2024-02-24T18:29:35.829Z,14.94
2024-02-24T18:32:21.578Z,14.92
2024-02-24T18:34:58.311Z,14.86
2024-02-24T18:37:57.712Z,14.79
2024-02-24T18:40:33.646Z,14.74
2024-02-24T18:43:31.415Z,14.72
2024-02-24T18:46:22.930Z,14.67
2024-02-24T18:49:34.787Z,14.66
2024-02-24T18:52:44.545Z,14.65
2024-02-24T18:55:20.326Z,14.68
2024-02-24T18:57:57.418Z,14.69
2024-02-24T19:00:29.225Z,14.67
2024-02-24T19:02:57.681Z,14.63
2024-02-24T19:05:32.289Z,14.61
2024-02-24T19:08:00.910Z,14.59
2024-02-24T19:10:31.276Z,14.59
2024-02-24T19:12:59.816Z,14.61
2024-02-24T19:15:28.702Z,14.66
2024-02-24T19:17:57.750Z,14.67
2024-02-24T19:20:28.959Z,14.65
2024-02-24T19:23:00.697Z,14.60
2024-02-24T19:25:32.938Z,14.60
2024-02-24T19:28:01.709Z,14.63
2024-02-24T19:30:30.220Z,14.64
2024-02-24T19:32:59.800Z,14.62
2024-02-24T19:35:29.507Z,14.61
2024-02-24T19:37:59.212Z,14.63
2024-02-24T19:40:30.933Z,14.66
2024-02-24T19:43:02.284Z,14.67
2024-02-24T19:45:30.696Z,14.66
2024-02-24T19:48:05.197Z,14.67
2024-02-24T19:50:51.561Z,14.59
2024-02-24T19:53:21.540Z,14.47
2024-02-24T19:55:53.193Z,14.38
2024-02-24T19:58:34.832Z,14.30
2024-02-24T20:01:12.668Z,14.26
2024-02-24T20:03:52.035Z,14.14
2024-02-24T20:06:25.809Z,14.10
2024-02-24T20:08:55.928Z,14.05
2024-02-24T20:11:26.371Z,14.02
2024-02-24T20:14:02.572Z,14.00
2024-02-24T20:16:33.554Z,13.93
2024-02-24T20:19:15.624Z,13.86
2024-02-24T20:21:46.847Z,13.82
2024-02-24T20:24:17.817Z,13.81
2024-02-24T20:26:46.182Z,13.83
2024-02-24T20:29:14.948Z,13.86
2024-02-24T20:31:43.263Z,13.84
2024-02-24T20:34:11.492Z,13.81
2024-02-24T20:36:39.978Z,13.83
2024-02-24T20:39:18.703Z,13.86
2024-02-24T20:41:46.897Z,13.87
2024-02-24T20:44:17.964Z,13.87
2024-02-24T20:46:46.971Z,13.88
2024-02-24T20:49:18.537Z,13.89
2024-02-24T20:51:46.885Z,13.86
2024-02-24T20:54:15.060Z,13.84
2024-02-24T20:56:43.717Z,13.78
2024-02-24T20:59:12.854Z,13.75
2024-02-24T21:01:41.810Z,13.66
2024-02-24T21:04:10.547Z,13.61
2024-02-24T21:06:38.809Z,13.59
2024-02-24T21:09:07.625Z,13.58
2024-02-24T21:11:36.069Z,13.56
2024-02-24T21:14:04.188Z,13.54
2024-02-24T21:16:32.498Z,13.51
2024-02-24T21:19:00.772Z,13.53
2024-02-24T21:21:32.336Z,13.52
2024-02-24T21:24:03.543Z,13.46
2024-02-24T21:26:34.870Z,13.38
2024-02-24T21:29:03.253Z,13.36
2024-02-24T21:31:32.055Z,13.33
2024-02-24T21:34:00.386Z,13.32
2024-02-24T21:36:29.903Z,13.29
2024-02-24T21:38:58.641Z,13.27
2024-02-24T21:41:37.804Z,13.24
2024-02-24T21:44:06.729Z,13.25
2024-02-24T21:46:35.265Z,13.21
2024-02-24T21:49:03.625Z,13.19
2024-02-24T21:51:36.346Z,13.19
2024-02-24T21:54:11.077Z,13.17
2024-02-24T21:56:39.698Z,13.18
2024-02-24T21:59:08.072Z,13.15
2024-02-24T22:01:36.606Z,13.13
2024-02-24T22:04:11.115Z,13.15
2024-02-24T22:06:45.346Z,13.12
2024-02-24T22:09:37.318Z,13.10
2024-02-24T22:12:05.843Z,13.09
2024-02-24T22:14:34.282Z,13.08
2024-02-24T22:17:12.342Z,13.11
2024-02-24T22:19:40.747Z,13.11
2024-02-24T22:22:15.261Z,13.08
2024-02-24T22:24:51.244Z,13.05
2024-02-24T22:27:22.407Z,13.04
2024-02-24T22:30:04.647Z,13.05
2024-02-24T22:32:44.428Z,13.00
2024-02-24T22:35:15.685Z,12.97
2024-02-24T22:37:56.843Z,12.92
2024-02-24T22:40:28.189Z,12.90
2024-02-24T22:42:59.201Z,12.88
2024-02-24T22:45:30.274Z,12.85
2024-02-24T22:48:01.348Z,12.82
2024-02-24T22:50:30.569Z,12.82
2024-02-24T22:53:05.638Z,12.84
2024-02-24T22:55:37.513Z,12.85
2024-02-24T22:58:08.615Z,12.84
2024-02-24T23:00:43.906Z,12.82
2024-02-24T23:03:23.649Z,12.81
2024-02-24T23:05:52.863Z,12.80
2024-02-24T23:08:23.587Z,12.77
2024-02-24T23:11:16.664Z,12.75
2024-02-24T23:13:55.939Z,12.74
2024-02-24T23:16:59.689Z,12.72
2024-02-24T23:19:41.688Z,12.72
2024-02-24T23:22:32.349Z,12.75
2024-02-24T23:25:05.968Z,12.75
2024-02-24T23:27:39.793Z,12.78
2024-02-24T23:30:11.761Z,12.81
2024-02-24T23:32:48.608Z,12.84
2024-02-24T23:35:20.658Z,12.84
2024-02-24T23:37:49.015Z,12.85
2024-02-24T23:40:19.938Z,12.87
2024-02-24T23:42:51.135Z,12.86
2024-02-24T23:45:22.416Z,12.88
2024-02-24T23:47:53.329Z,12.89
2024-02-24T23:50:45.121Z,12.90
2024-02-24T23:53:25.961Z,12.92
2024-02-24T23:56:14.114Z,12.94
2024-02-24T23:58:48.122Z,12.97
